Minerva Anna — SVNP — position and weather

sailwx.info

Track history (hours):
 
Tides and Currents Weather Stations Pressure Air Temp Water Temp Dewpoint Dewpoint Depression Visibility Wind Speed Wind Dir Waves Ship Positions

Minerva Anna

Last reported at 2016-Aug-29 20:33 UTC. Time now 2016-Aug-29 21:32 UTC.
Position N 44°24' E 037°36'.

Length 183 m; draft 8 m.

Type: Ship (hazmat cat A). MMSI: 240729000.

Date/timePositionNaut miles runAvg speedWind from/ knotsBaromVisibWave heightAir tempDewpointWater temp
2016-Aug-29 20:33N 44°24' E 037°36'1 1.0
2016-Aug-29 19:33N 44°24' E 037°37'9 9.2
2016-Aug-29 18:32N 44°19' E 037°26'0 0.5
2016-Aug-29 17:34N 44°19' E 037°27'1 1.2
2016-Aug-29 16:27N 44°20' E 037°29'1 1.2
2016-Aug-29 15:33N 44°20' E 037°30'1 1.0
2016-Aug-29 14:33N 44°21' E 037°31'1 1.0
2016-Aug-29 13:33N 44°21' E 037°32'1 0.9
2016-Aug-29 12:32N 44°22' E 037°33'1 1.0
2016-Aug-29 11:33N 44°23' E 037°34'2323.1
2016-Aug-29 10:33N 44°35' E 038°01'0 0.0
2016-Aug-29 09:33N 44°35' E 038°01'0 0.0
2016-Aug-29 08:33N 44°35' E 038°01'0 0.0
2016-Aug-29 07:34N 44°35' E 038°01'1918.6
2016-Aug-29 06:34N 44°26' E 037°39'8 7.7
2016-Aug-29 05:33N 44°24' E 037°28'1312.7
2016-Aug-29 04:33N 44°18' E 037°12'41612.6
2016-Aug-27 19:33N 40°56' E 028°58'1212.3
2016-Aug-27 18:32N 40°49' E 028°45'3 0.5
2016-Aug-27 13:28N 40°46' E 028°47'7 7.8
2016-Aug-27 12:33N 40°43' E 028°55'2 1.6
2016-Aug-27 11:33N 40°44' E 028°55'1 1.2
2016-Aug-27 10:33N 40°46' E 028°55'1 0.8
2016-Aug-27 09:29N 40°46' E 028°56'1 1.1
2016-Aug-27 08:33N 40°47' E 028°55'2 2.2
2016-Aug-27 07:33N 40°50' E 028°56'235 8.4
2016-Aug-26 03:29N 37°54' E 025°33'1313.7
2016-Aug-26 02:33N 37°42' E 025°38'1614.1
2016-Aug-26 01:24N 37°28' E 025°47'  
2016-Aug-21 18:33N 35°45' E 028°45'80 4.3
2016-Aug-21 00:14N 35°25' E 030°20'1710.4
2016-Aug-20 22:33N 35°21' E 030°41'1110.5
2016-Aug-20 21:31N 35°19' E 030°54'3010.2
2016-Aug-20 18:32N 35°19' E 031°31'11610.4
2016-Aug-20 07:25N 35°47' E 033°49'1010.7
2016-Aug-20 06:30N 35°50' E 034°01'2010.4
2016-Aug-20 04:34N 35°54' E 034°25'  
Track history (hours):
 
Tides and Currents Weather Stations Pressure Air Temp Water Temp Dewpoint Dewpoint Depression Visibility Wind Speed Wind Dir Waves Ship Positions

Minerva Anna

Last reported at 2016-Aug-29 20:33 UTC. Time now 2016-Aug-29 21:32 UTC.
Position N 44°24' E 037°36'.

Length 183 m; draft 8 m.

Type: Ship (hazmat cat A). MMSI: 240729000.

Date/timePositionNaut miles runAvg speedWind from/ knotsBaromVisibWave heightAir tempDewpointWater temp
2016-Aug-29 20:33N 44°24' E 037°36'1 1.0
2016-Aug-29 19:33N 44°24' E 037°37'9 9.2
2016-Aug-29 18:32N 44°19' E 037°26'0 0.5
2016-Aug-29 17:34N 44°19' E 037°27'1 1.2
2016-Aug-29 16:27N 44°20' E 037°29'1 1.2
2016-Aug-29 15:33N 44°20' E 037°30'1 1.0
2016-Aug-29 14:33N 44°21' E 037°31'1 1.0
2016-Aug-29 13:33N 44°21' E 037°32'1 0.9
2016-Aug-29 12:32N 44°22' E 037°33'1 1.0
2016-Aug-29 11:33N 44°23' E 037°34'2323.1
2016-Aug-29 10:33N 44°35' E 038°01'0 0.0
2016-Aug-29 09:33N 44°35' E 038°01'0 0.0
2016-Aug-29 08:33N 44°35' E 038°01'0 0.0
2016-Aug-29 07:34N 44°35' E 038°01'1918.6
2016-Aug-29 06:34N 44°26' E 037°39'8 7.7
2016-Aug-29 05:33N 44°24' E 037°28'1312.7
2016-Aug-29 04:33N 44°18' E 037°12'41612.6
2016-Aug-27 19:33N 40°56' E 028°58'1212.3
2016-Aug-27 18:32N 40°49' E 028°45'3 0.5
2016-Aug-27 13:28N 40°46' E 028°47'7 7.8
2016-Aug-27 12:33N 40°43' E 028°55'2 1.6
2016-Aug-27 11:33N 40°44' E 028°55'1 1.2
2016-Aug-27 10:33N 40°46' E 028°55'1 0.8
2016-Aug-27 09:29N 40°46' E 028°56'1 1.1
2016-Aug-27 08:33N 40°47' E 028°55'2 2.2
2016-Aug-27 07:33N 40°50' E 028°56'235 8.4
2016-Aug-26 03:29N 37°54' E 025°33'1313.7
2016-Aug-26 02:33N 37°42' E 025°38'1614.1
2016-Aug-26 01:24N 37°28' E 025°47'  
2016-Aug-21 18:33N 35°45' E 028°45'80 4.3
2016-Aug-21 00:14N 35°25' E 030°20'1710.4
2016-Aug-20 22:33N 35°21' E 030°41'1110.5
2016-Aug-20 21:31N 35°19' E 030°54'3010.2
2016-Aug-20 18:32N 35°19' E 031°31'11610.4
2016-Aug-20 07:25N 35°47' E 033°49'1010.7
2016-Aug-20 06:30N 35°50' E 034°01'2010.4
2016-Aug-20 04:34N 35°54' E 034°25'  

Dump ship's entire track history